Terminal Aerodrome Forecast
Issued by NWS

Home | Current Version | Previous Version | Graphics & Text | Print | Product List | Glossary On
Versions: 1 2 3 4 5 6 7 8 9 10 11 12 13 14 15 16 17 18 19 20 21 22 23 24 25 26 27 28 29 30 31 32
000
FTUS43 KTOP 290154 AAA
TAFFOE
TAF AMD
KFOE 290154Z 2902/2924 18011KT P6SM BKN060
      TEMPO 2902/2903 -TSRA BKN035CB
     FM290900 35005KT 5SM BR BKN015
     FM291600 35009KT P6SM OVC020=

USA.gov is the U.S. government's official web portal to all federal, state and local government web resources and services.